sensor_id;sensor_type;location;lat;lon;timestamp;pressure;altitude;pressure_sealevel;temperature;humidity
53011;BME280;42803;55.762;38.084;2024-02-21T00:01:31;100489.06;;;-9.34;100.00
53011;BME280;42803;55.762;38.084;2024-02-21T00:04:01;100481.47;;;-9.34;100.00
53011;BME280;42803;55.762;38.084;2024-02-21T00:06:32;100482.00;;;-9.30;100.00
53011;BME280;42803;55.762;38.084;2024-02-21T00:09:01;100488.38;;;-9.33;100.00
53011;BME280;42803;55.762;38.084;2024-02-21T00:11:30;100477.59;;;-9.32;100.00
53011;BME280;42803;55.762;38.084;2024-02-21T00:14:00;100476.50;;;-9.28;100.00
53011;BME280;42803;55.762;38.084;2024-02-21T00:16:29;100473.75;;;-9.29;100.00
53011;BME280;42803;55.762;38.084;2024-02-21T00:18:58;100473.41;;;-9.21;100.00
53011;BME280;42803;55.762;38.084;2024-02-21T00:21:27;100468.03;;;-9.13;100.00
53011;BME280;42803;55.762;38.084;2024-02-21T00:23:58;100467.97;;;-9.19;100.00
53011;BME280;42803;55.762;38.084;2024-02-21T00:26:27;100466.53;;;-9.22;100.00
53011;BME280;42803;55.762;38.084;2024-02-21T00:28:56;100466.25;;;-9.24;100.00
53011;BME280;42803;55.762;38.084;2024-02-21T00:31:25;100466.00;;;-9.25;100.00
53011;BME280;42803;55.762;38.084;2024-02-21T00:33:54;100467.31;;;-9.27;100.00
53011;BME280;42803;55.762;38.084;2024-02-21T00:36:24;100464.56;;;-9.29;100.00
53011;BME280;42803;55.762;38.084;2024-02-21T00:38:53;100457.22;;;-9.27;100.00
53011;BME280;42803;55.762;38.084;2024-02-21T00:41:23;100460.03;;;-9.26;100.00
53011;BME280;42803;55.762;38.084;2024-02-21T00:43:53;100463.22;;;-9.27;100.00
53011;BME280;42803;55.762;38.084;2024-02-21T00:46:22;100462.53;;;-9.26;100.00
53011;BME280;42803;55.762;38.084;2024-02-21T00:48:51;100461.63;;;-9.26;100.00
53011;BME280;42803;55.762;38.084;2024-02-21T00:51:20;100452.69;;;-9.24;100.00
53011;BME280;42803;55.762;38.084;2024-02-21T00:53:49;100454.53;;;-9.23;100.00
53011;BME280;42803;55.762;38.084;2024-02-21T00:56:18;100454.13;;;-9.21;100.00
53011;BME280;42803;55.762;38.084;2024-02-21T00:58:49;100454.41;;;-9.19;100.00
53011;BME280;42803;55.762;38.084;2024-02-21T01:01:21;100444.94;;;-9.20;100.00
53011;BME280;42803;55.762;38.084;2024-02-21T01:03:51;100434.56;;;-9.22;100.00
53011;BME280;42803;55.762;38.084;2024-02-21T01:06:21;100429.25;;;-9.23;100.00
53011;BME280;42803;55.762;38.084;2024-02-21T01:08:51;100432.03;;;-9.22;100.00
53011;BME280;42803;55.762;38.084;2024-02-21T01:11:20;100421.94;;;-9.22;100.00
53011;BME280;42803;55.762;38.084;2024-02-21T01:13:54;100415.28;;;-9.21;100.00
53011;BME280;42803;55.762;38.084;2024-02-21T01:16:24;100414.59;;;-9.20;100.00
53011;BME280;42803;55.762;38.084;2024-02-21T01:18:54;100412.34;;;-9.19;100.00
53011;BME280;42803;55.762;38.084;2024-02-21T01:21:23;100408.22;;;-9.18;100.00
53011;BME280;42803;55.762;38.084;2024-02-21T01:23:52;100407.28;;;-9.19;100.00
53011;BME280;42803;55.762;38.084;2024-02-21T01:26:21;100407.75;;;-9.16;100.00
53011;BME280;42803;55.762;38.084;2024-02-21T01:28:50;100407.34;;;-9.13;100.00
53011;BME280;42803;55.762;38.084;2024-02-21T01:31:21;100405.09;;;-9.12;100.00
53011;BME280;42803;55.762;38.084;2024-02-21T01:33:50;100403.06;;;-9.09;100.00
53011;BME280;42803;55.762;38.084;2024-02-21T01:36:20;100399.19;;;-9.06;100.00
53011;BME280;42803;55.762;38.084;2024-02-21T01:38:49;100403.56;;;-9.05;100.00
53011;BME280;42803;55.762;38.084;2024-02-21T01:41:18;100403.16;;;-9.03;100.00
53011;BME280;42803;55.762;38.084;2024-02-21T01:43:47;100398.34;;;-9.01;100.00
53011;BME280;42803;55.762;38.084;2024-02-21T01:46:16;100404.59;;;-8.99;100.00
53011;BME280;42803;55.762;38.084;2024-02-21T01:48:47;100393.38;;;-8.96;100.00
53011;BME280;42803;55.762;38.084;2024-02-21T01:51:16;100399.88;;;-8.92;100.00
53011;BME280;42803;55.762;38.084;2024-02-21T01:53:46;100402.88;;;-8.89;100.00
53011;BME280;42803;55.762;38.084;2024-02-21T01:56:15;100396.75;;;-8.86;100.00
53011;BME280;42803;55.762;38.084;2024-02-21T01:58:45;100398.63;;;-8.85;100.00
53011;BME280;42803;55.762;38.084;2024-02-21T02:01:16;100389.25;;;-8.80;100.00
53011;BME280;42803;55.762;38.084;2024-02-21T02:03:51;100393.38;;;-8.80;100.00
53011;BME280;42803;55.762;38.084;2024-02-21T02:06:20;100394.38;;;-8.74;100.00
53011;BME280;42803;55.762;38.084;2024-02-21T02:08:50;100390.25;;;-8.74;100.00
53011;BME280;42803;55.762;38.084;2024-02-21T02:11:19;100382.50;;;-8.70;100.00
53011;BME280;42803;55.762;38.084;2024-02-21T02:13:49;100386.72;;;-8.65;100.00
53011;BME280;42803;55.762;38.084;2024-02-21T02:16:18;100391.59;;;-8.61;100.00
53011;BME280;42803;55.762;38.084;2024-02-21T02:18:48;100382.63;;;-8.59;100.00
53011;BME280;42803;55.762;38.084;2024-02-21T02:21:23;100386.13;;;-8.58;100.00
53011;BME280;42803;55.762;38.084;2024-02-21T02:23:59;100384.75;;;-8.56;100.00
53011;BME280;42803;55.762;38.084;2024-02-21T02:26:28;100389.91;;;-8.50;100.00
53011;BME280;42803;55.762;38.084;2024-02-21T02:28:57;100393.09;;;-8.51;100.00
53011;BME280;42803;55.762;38.084;2024-02-21T02:31:26;100385.75;;;-8.50;100.00
53011;BME280;42803;55.762;38.084;2024-02-21T02:33:56;100390.13;;;-8.49;100.00
53011;BME280;42803;55.762;38.084;2024-02-21T02:36:26;100394.28;;;-8.49;100.00
53011;BME280;42803;55.762;38.084;2024-02-21T02:38:56;100387.84;;;-8.47;100.00
53011;BME280;42803;55.762;38.084;2024-02-21T02:41:26;100383.97;;;-8.45;100.00
53011;BME280;42803;55.762;38.084;2024-02-21T02:43:55;100387.75;;;-8.38;100.00
53011;BME280;42803;55.762;38.084;2024-02-21T02:46:24;100386.84;;;-8.32;100.00
53011;BME280;42803;55.762;38.084;2024-02-21T02:48:54;100381.78;;;-8.32;100.00
53011;BME280;42803;55.762;38.084;2024-02-21T02:51:23;100379.03;;;-8.34;100.00
53011;BME280;42803;55.762;38.084;2024-02-21T02:53:52;100377.66;;;-8.32;100.00
53011;BME280;42803;55.762;38.084;2024-02-21T02:56:21;100375.81;;;-8.33;100.00
53011;BME280;42803;55.762;38.084;2024-02-21T02:58:52;100377.00;;;-8.31;100.00
53011;BME280;42803;55.762;38.084;2024-02-21T03:01:21;100376.53;;;-8.28;100.00
53011;BME280;42803;55.762;38.084;2024-02-21T03:03:50;100381.19;;;-8.26;100.00
53011;BME280;42803;55.762;38.084;2024-02-21T03:06:20;100381.44;;;-8.24;100.00
53011;BME280;42803;55.762;38.084;2024-02-21T03:08:49;100375.94;;;-8.22;100.00
53011;BME280;42803;55.762;38.084;2024-02-21T03:11:22;100375.94;;;-8.22;100.00
53011;BME280;42803;55.762;38.084;2024-02-21T03:13:59;100381.28;;;-8.20;100.00
53011;BME280;42803;55.762;38.084;2024-02-21T03:16:28;100380.13;;;-8.17;100.00
53011;BME280;42803;55.762;38.084;2024-02-21T03:18:57;100377.88;;;-8.15;100.00
53011;BME280;42803;55.762;38.084;2024-02-21T03:21:27;100372.53;;;-8.17;100.00
53011;BME280;42803;55.762;38.084;2024-02-21T03:23:56;100379.28;;;-8.12;100.00
53011;BME280;42803;55.762;38.084;2024-02-21T03:26:25;100372.84;;;-8.10;100.00
53011;BME280;42803;55.762;38.084;2024-02-21T03:28:54;100370.81;;;-8.06;100.00
53011;BME280;42803;55.762;38.084;2024-02-21T03:31:25;100372.94;;;-8.04;100.00
53011;BME280;42803;55.762;38.084;2024-02-21T03:33:58;100374.78;;;-8.03;100.00
53011;BME280;42803;55.762;38.084;2024-02-21T03:36:27;100374.34;;;-8.00;100.00
53011;BME280;42803;55.762;38.084;2024-02-21T03:38:56;100371.31;;;-8.03;100.00
53011;BME280;42803;55.762;38.084;2024-02-21T03:41:26;100363.03;;;-8.02;100.00
53011;BME280;42803;55.762;38.084;2024-02-21T03:43:56;100367.69;;;-8.00;100.00
53011;BME280;42803;55.762;38.084;2024-02-21T03:46:27;100366.56;;;-7.96;100.00
53011;BME280;42803;55.762;38.084;2024-02-21T03:48:56;100365.19;;;-7.94;100.00
53011;BME280;42803;55.762;38.084;2024-02-21T03:51:26;100371.19;;;-7.94;100.00
53011;BME280;42803;55.762;38.084;2024-02-21T03:53:55;100365.19;;;-7.94;100.00
53011;BME280;42803;55.762;38.084;2024-02-21T03:56:24;100377.84;;;-7.94;100.00
53011;BME280;42803;55.762;38.084;2024-02-21T03:58:53;100370.25;;;-7.94;100.00
53011;BME280;42803;55.762;38.084;2024-02-21T04:01:23;100370.25;;;-7.94;100.00
53011;BME280;42803;55.762;38.084;2024-02-21T04:03:54;100368.91;;;-7.92;100.00
53011;BME280;42803;55.762;38.084;2024-02-21T04:06:23;100371.94;;;-7.89;100.00
53011;BME280;42803;55.762;38.084;2024-02-21T04:08:52;100368.03;;;-7.87;100.00
53011;BME280;42803;55.762;38.084;2024-02-21T04:11:22;100365.28;;;-7.89;100.00
53011;BME280;42803;55.762;38.084;2024-02-21T04:13:51;100362.97;;;-7.87;100.00
53011;BME280;42803;55.762;38.084;2024-02-21T04:16:20;100362.28;;;-7.86;100.00
53011;BME280;42803;55.762;38.084;2024-02-21T04:18:50;100362.47;;;-7.90;100.00
53011;BME280;42803;55.762;38.084;2024-02-21T04:21:21;100363.66;;;-7.88;100.00
53011;BME280;42803;55.762;38.084;2024-02-21T04:23:50;100364.16;;;-7.85;100.00
53011;BME280;42803;55.762;38.084;2024-02-21T04:26:19;100368.53;;;-7.84;100.00
53011;BME280;42803;55.762;38.084;2024-02-21T04:28:49;100375.94;;;-7.80;100.00
53011;BME280;42803;55.762;38.084;2024-02-21T04:31:18;100367.19;;;-7.82;100.00
53011;BME280;42803;55.762;38.084;2024-02-21T04:33:48;100370.66;;;-7.81;100.00
53011;BME280;42803;55.762;38.084;2024-02-21T04:36:17;100370.19;;;-7.79;100.00
53011;BME280;42803;55.762;38.084;2024-02-21T04:38:48;100372.06;;;-7.78;100.00
53011;BME280;42803;55.762;38.084;2024-02-21T04:41:18;100377.78;;;-7.79;100.00
53011;BME280;42803;55.762;38.084;2024-02-21T04:43:47;100373.22;;;-7.76;100.00
53011;BME280;42803;55.762;38.084;2024-02-21T04:46:17;100378.78;;;-7.73;100.00
53011;BME280;42803;55.762;38.084;2024-02-21T04:48:46;100372.84;;;-7.68;100.00
53011;BME280;42803;55.762;38.084;2024-02-21T04:51:15;100378.41;;;-7.65;100.00
53011;BME280;42803;55.762;38.084;2024-02-21T04:53:44;100377.06;;;-7.63;100.00
53011;BME280;42803;55.762;38.084;2024-02-21T04:56:15;100379.41;;;-7.58;100.00
53011;BME280;42803;55.762;38.084;2024-02-21T04:58:44;100377.53;;;-7.60;100.00
53011;BME280;42803;55.762;38.084;2024-02-21T05:01:13;100370.59;;;-7.61;100.00
53011;BME280;42803;55.762;38.084;2024-02-21T05:03:42;100375.94;;;-7.59;100.00
53011;BME280;42803;55.762;38.084;2024-02-21T05:06:12;100373.63;;;-7.57;100.00
53011;BME280;42803;55.762;38.084;2024-02-21T05:08:41;100367.03;;;-7.51;100.00
53011;BME280;42803;55.762;38.084;2024-02-21T05:11:10;100369.78;;;-7.50;100.00
53011;BME280;42803;55.762;38.084;2024-02-21T05:13:41;100374.88;;;-7.50;100.00
53011;BME280;42803;55.762;38.084;2024-02-21T05:16:10;100369.81;;;-7.44;100.00
53011;BME280;42803;55.762;38.084;2024-02-21T05:18:40;100366.16;;;-7.41;100.00
53011;BME280;42803;55.762;38.084;2024-02-21T05:21:10;100364.41;;;-7.36;100.00
53011;BME280;42803;55.762;38.084;2024-02-21T05:23:40;100371.81;;;-7.32;100.00
53011;BME280;42803;55.762;38.084;2024-02-21T05:26:09;100367.38;;;-7.33;100.00
53011;BME280;42803;55.762;38.084;2024-02-21T05:28:38;100371.41;;;-7.24;100.00
53011;BME280;42803;55.762;38.084;2024-02-21T05:31:09;100367.78;;;-7.15;100.00
53011;BME280;42803;55.762;38.084;2024-02-21T05:33:38;100372.16;;;-7.14;100.00
53011;BME280;42803;55.762;38.084;2024-02-21T05:36:08;100369.81;;;-7.18;100.00
53011;BME280;42803;55.762;38.084;2024-02-21T05:38:37;100376.84;;;-7.05;100.00
53011;BME280;42803;55.762;38.084;2024-02-21T05:41:06;100379.63;;;-7.04;100.00
53011;BME280;42803;55.762;38.084;2024-02-21T05:43:40;100366.50;;;-7.01;100.00
53011;BME280;42803;55.762;38.084;2024-02-21T05:46:10;100369.31;;;-6.94;100.00
53011;BME280;42803;55.762;38.084;2024-02-21T05:48:41;100362.88;;;-6.92;100.00
53011;BME280;42803;55.762;38.084;2024-02-21T05:51:10;100361.50;;;-6.90;100.00
53011;BME280;42803;55.762;38.084;2024-02-21T05:53:40;100372.88;;;-6.82;100.00
53011;BME280;42803;55.762;38.084;2024-02-21T05:56:10;100378.66;;;-6.78;100.00
53011;BME280;42803;55.762;38.084;2024-02-21T05:58:40;100371.72;;;-6.79;100.00
53011;BME280;42803;55.762;38.084;2024-02-21T06:01:12;100377.53;;;-6.74;100.00
53011;BME280;42803;55.762;38.084;2024-02-21T06:03:41;100370.84;;;-6.74;100.00
53011;BME280;42803;55.762;38.084;2024-02-21T06:06:13;100370.41;;;-6.66;100.00
53011;BME280;42803;55.762;38.084;2024-02-21T06:08:43;100369.56;;;-6.55;100.00
53011;BME280;42803;55.762;38.084;2024-02-21T06:11:12;100374.91;;;-6.48;100.00
53011;BME280;42803;55.762;38.084;2024-02-21T06:13:43;100371.50;;;-6.37;100.00
53011;BME280;42803;55.762;38.084;2024-02-21T06:16:14;100369.19;;;-6.35;100.00
53011;BME280;42803;55.762;38.084;2024-02-21T06:18:43;100370.16;;;-6.29;100.00
53011;BME280;42803;55.762;38.084;2024-02-21T06:21:12;100367.63;;;-6.29;100.00
53011;BME280;42803;55.762;38.084;2024-02-21T06:23:41;100360.97;;;-6.18;100.00
53011;BME280;42803;55.762;38.084;2024-02-21T06:26:10;100364.25;;;-6.02;100.00
53011;BME280;42803;55.762;38.084;2024-02-21T06:28:40;100361.22;;;-5.99;99.57
53011;BME280;42803;55.762;38.084;2024-02-21T06:31:10;100366.56;;;-5.92;99.22
53011;BME280;42803;55.762;38.084;2024-02-21T06:33:42;100351.78;;;-5.78;98.76
53011;BME280;42803;55.762;38.084;2024-02-21T06:36:11;100357.78;;;-5.83;98.21
53011;BME280;42803;55.762;38.084;2024-02-21T06:38:40;100359.63;;;-5.93;97.76
53011;BME280;42803;55.762;38.084;2024-02-21T06:41:15;100364.72;;;-5.82;98.00
53011;BME280;42803;55.762;38.084;2024-02-21T06:43:46;100364.03;;;-5.70;97.85
53011;BME280;42803;55.762;38.084;2024-02-21T06:46:25;100358.03;;;-5.53;97.15
53011;BME280;42803;55.762;38.084;2024-02-21T06:48:56;100355.53;;;-5.48;95.95
53011;BME280;42803;55.762;38.084;2024-02-21T06:51:25;100358.53;;;-5.33;95.56
53011;BME280;42803;55.762;38.084;2024-02-21T06:53:55;100366.63;;;-5.30;94.99
53011;BME280;42803;55.762;38.084;2024-02-21T06:56:24;100366.38;;;-5.43;94.40
53011;BME280;42803;55.762;38.084;2024-02-21T06:58:57;100370.34;;;-5.34;94.33
53011;BME280;42803;55.762;38.084;2024-02-21T07:01:26;100368.47;;;-5.24;94.49
53011;BME280;42803;55.762;38.084;2024-02-21T07:03:57;100364.56;;;-5.22;93.87
53011;BME280;42803;55.762;38.084;2024-02-21T07:06:26;100368.47;;;-5.01;93.24
53011;BME280;42803;55.762;38.084;2024-02-21T07:08:59;100361.28;;;-4.93;92.98
53011;BME280;42803;55.762;38.084;2024-02-21T07:11:28;100361.53;;;-5.02;92.60
53011;BME280;42803;55.762;38.084;2024-02-21T07:13:58;100368.00;;;-4.93;92.08
53011;BME280;42803;55.762;38.084;2024-02-21T07:16:27;100360.59;;;-4.86;92.19
53011;BME280;42803;55.762;38.084;2024-02-21T07:18:57;100353.66;;;-4.87;91.85
53011;BME280;42803;55.762;38.084;2024-02-21T07:21:27;100360.38;;;-4.87;91.16
53011;BME280;42803;55.762;38.084;2024-02-21T07:23:56;100360.81;;;-4.79;91.17
53011;BME280;42803;55.762;38.084;2024-02-21T07:26:26;100362.41;;;-4.74;90.95
53011;BME280;42803;55.762;38.084;2024-02-21T07:28:55;100361.50;;;-4.69;90.61
53011;BME280;42803;55.762;38.084;2024-02-21T07:31:24;100355.88;;;-4.49;90.45
53011;BME280;42803;55.762;38.084;2024-02-21T07:33:54;100352.16;;;-4.51;89.71
53011;BME280;42803;55.762;38.084;2024-02-21T07:36:28;100349.38;;;-4.47;89.57
53011;BME280;42803;55.762;38.084;2024-02-21T07:38:58;100354.88;;;-4.33;89.30
53011;BME280;42803;55.762;38.084;2024-02-21T07:41:28;100353.50;;;-4.31;88.75
53011;BME280;42803;55.762;38.084;2024-02-21T07:43:58;100342.09;;;-4.22;88.57
53011;BME280;42803;55.762;38.084;2024-02-21T07:46:27;100348.78;;;-4.17;88.03
53011;BME280;42803;55.762;38.084;2024-02-21T07:48:57;100352.00;;;-4.06;88.03
53011;BME280;42803;55.762;38.084;2024-02-21T07:51:29;100337.16;;;-4.03;87.22
53011;BME280;42803;55.762;38.084;2024-02-21T07:53:58;100344.03;;;-3.91;86.96
53011;BME280;42803;55.762;38.084;2024-02-21T07:56:27;100347.31;;;-3.98;86.89
53011;BME280;42803;55.762;38.084;2024-02-21T07:58:57;100345.63;;;-4.27;86.94
53011;BME280;42803;55.762;38.084;2024-02-21T08:01:27;100349.72;;;-4.16;87.63
53011;BME280;42803;55.762;38.084;2024-02-21T08:03:56;100352.50;;;-4.14;87.94
53011;BME280;42803;55.762;38.084;2024-02-21T08:06:27;100347.81;;;-4.06;87.42
53011;BME280;42803;55.762;38.084;2024-02-21T08:08:57;100348.44;;;-3.90;87.26
53011;BME280;42803;55.762;38.084;2024-02-21T08:11:28;100340.91;;;-3.72;86.81
53011;BME280;42803;55.762;38.084;2024-02-21T08:13:58;100337.31;;;-3.55;86.18
53011;BME280;42803;55.762;38.084;2024-02-21T08:16:28;100332.81;;;-3.75;85.74
53011;BME280;42803;55.762;38.084;2024-02-21T08:18:57;100341.53;;;-3.61;85.74
53011;BME280;42803;55.762;38.084;2024-02-21T08:21:27;100340.72;;;-3.79;85.57
53011;BME280;42803;55.762;38.084;2024-02-21T08:23:58;100334.94;;;-3.48;85.56
53011;BME280;42803;55.762;38.084;2024-02-21T08:26:27;100337.31;;;-3.26;85.23
53011;BME280;42803;55.762;38.084;2024-02-21T08:28:57;100338.03;;;-3.27;84.00
53011;BME280;42803;55.762;38.084;2024-02-21T08:31:28;100334.94;;;-3.48;84.22
53011;BME280;42803;55.762;38.084;2024-02-21T08:34:00;100339.44;;;-3.29;84.46
53011;BME280;42803;55.762;38.084;2024-02-21T08:36:32;100339.00;;;-3.32;83.58
53011;BME280;42803;55.762;38.084;2024-02-21T08:39:03;100337.84;;;-3.34;84.22
53011;BME280;42803;55.762;38.084;2024-02-21T08:41:33;100329.53;;;-3.09;84.12
53011;BME280;42803;55.762;38.084;2024-02-21T08:44:23;100338.19;;;-2.90;83.22
53011;BME280;42803;55.762;38.084;2024-02-21T08:46:54;100327.69;;;-2.67;82.55
53011;BME280;42803;55.762;38.084;2024-02-21T08:49:25;100333.09;;;-2.72;81.70
53011;BME280;42803;55.762;38.084;2024-02-21T08:52:01;100323.91;;;-2.58;81.64
53011;BME280;42803;55.762;38.084;2024-02-21T08:54:33;100326.84;;;-2.74;82.42
53011;BME280;42803;55.762;38.084;2024-02-21T08:57:03;100324.34;;;-2.79;81.73
53011;BME280;42803;55.762;38.084;2024-02-21T08:59:32;100328.25;;;-2.76;81.90
53011;BME280;42803;55.762;38.084;2024-02-21T09:02:01;100328.66;;;-2.91;81.84
53011;BME280;42803;55.762;38.084;2024-02-21T09:04:31;100332.94;;;-3.27;82.32
53011;BME280;42803;55.762;38.084;2024-02-21T09:07:01;100337.13;;;-3.27;83.19
53011;BME280;42803;55.762;38.084;2024-02-21T09:09:31;100329.31;;;-3.40;82.67
53011;BME280;42803;55.762;38.084;2024-02-21T09:12:02;100323.81;;;-2.95;83.61
53011;BME280;42803;55.762;38.084;2024-02-21T09:14:37;100335.59;;;-3.14;82.76
53011;BME280;42803;55.762;38.084;2024-02-21T09:17:07;100314.44;;;-3.37;82.88
53011;BME280;42803;55.762;38.084;2024-02-21T09:19:36;100326.84;;;-3.22;83.05
53011;BME280;42803;55.762;38.084;2024-02-21T09:22:05;100324.38;;;-3.33;83.00
53011;BME280;42803;55.762;38.084;2024-02-21T09:24:35;100327.53;;;-3.52;83.69
53011;BME280;42803;55.762;38.084;2024-02-21T09:27:05;100315.19;;;-3.44;84.03
53011;BME280;42803;55.762;38.084;2024-02-21T09:29:35;100317.63;;;-3.27;83.98
53011;BME280;42803;55.762;38.084;2024-02-21T09:32:04;100316.25;;;-3.06;83.60
53011;BME280;42803;55.762;38.084;2024-02-21T09:34:35;100312.66;;;-2.72;82.84
53011;BME280;42803;55.762;38.084;2024-02-21T09:37:04;100312.31;;;-2.62;82.18
53011;BME280;42803;55.762;38.084;2024-02-21T09:39:33;100309.06;;;-2.61;81.70
53011;BME280;42803;55.762;38.084;2024-02-21T09:42:08;100306.66;;;-2.54;81.39
53011;BME280;42803;55.762;38.084;2024-02-21T09:44:40;100306.22;;;-2.99;81.42
53011;BME280;42803;55.762;38.084;2024-02-21T09:47:17;100303.28;;;-3.32;83.03
53011;BME280;42803;55.762;38.084;2024-02-21T09:49:47;100303.88;;;-3.51;84.20
53011;BME280;42803;55.762;38.084;2024-02-21T09:52:17;100302.81;;;-3.64;84.87
53011;BME280;42803;55.762;38.084;2024-02-21T09:54:49;100302.28;;;-3.56;84.74
53011;BME280;42803;55.762;38.084;2024-02-21T09:57:22;100302.84;;;-3.35;84.50
53011;BME280;42803;55.762;38.084;2024-02-21T09:59:52;100294.47;;;-3.34;83.96
53011;BME280;42803;55.762;38.084;2024-02-21T10:02:22;100295.91;;;-3.12;83.96
53011;BME280;42803;55.762;38.084;2024-02-21T10:04:52;100290.88;;;-2.99;82.96
53011;BME280;42803;55.762;38.084;2024-02-21T10:07:21;100290.97;;;-2.62;83.33
53011;BME280;42803;55.762;38.084;2024-02-21T10:10:00;100294.75;;;-2.48;81.32
53011;BME280;42803;55.762;38.084;2024-02-21T10:12:31;100293.09;;;-2.47;81.14
53011;BME280;42803;55.762;38.084;2024-02-21T10:15:01;100288.53;;;-2.37;81.81
53011;BME280;42803;55.762;38.084;2024-02-21T10:17:32;100285.34;;;-2.41;80.58
53011;BME280;42803;55.762;38.084;2024-02-21T10:20:07;100282.31;;;-2.39;80.77
53011;BME280;42803;55.762;38.084;2024-02-21T10:22:38;100280.19;;;-2.17;81.17
53011;BME280;42803;55.762;38.084;2024-02-21T10:25:08;100284.94;;;-2.26;80.16
53011;BME280;42803;55.762;38.084;2024-02-21T10:27:39;100280.34;;;-2.29;79.97
53011;BME280;42803;55.762;38.084;2024-02-21T10:30:14;100284.00;;;-2.27;79.89
53011;BME280;42803;55.762;38.084;2024-02-21T10:32:50;100282.78;;;-2.05;79.69
53011;BME280;42803;55.762;38.084;2024-02-21T10:35:27;100280.88;;;-2.18;79.50
53011;BME280;42803;55.762;38.084;2024-02-21T10:37:57;100283.00;;;-2.22;79.47
53011;BME280;42803;55.762;38.084;2024-02-21T10:40:28;100289.13;;;-2.27;79.96
53011;BME280;42803;55.762;38.084;2024-02-21T10:43:01;100280.44;;;-2.22;80.41
53011;BME280;42803;55.762;38.084;2024-02-21T10:45:34;100280.03;;;-2.25;80.10
53011;BME280;42803;55.762;38.084;2024-02-21T10:48:11;100278.44;;;-2.11;79.28
53011;BME280;42803;55.762;38.084;2024-02-21T10:50:56;100281.94;;;-2.11;78.94
53011;BME280;42803;55.762;38.084;2024-02-21T10:53:35;100284.63;;;-2.40;78.49
53011;BME280;42803;55.762;38.084;2024-02-21T10:56:16;100281.56;;;-2.56;79.83
53011;BME280;42803;55.762;38.084;2024-02-21T10:58:49;100274.16;;;-2.55;80.26
53011;BME280;42803;55.762;38.084;2024-02-21T11:01:19;100266.47;;;-2.36;80.14
53011;BME280;42803;55.762;38.084;2024-02-21T11:03:53;100268.94;;;-2.49;79.72
53011;BME280;42803;55.762;38.084;2024-02-21T11:06:23;100263.69;;;-2.75;81.04
53011;BME280;42803;55.762;38.084;2024-02-21T11:09:03;100269.44;;;-2.70;81.54
53011;BME280;42803;55.762;38.084;2024-02-21T11:11:33;100268.25;;;-2.66;80.98
53011;BME280;42803;55.762;38.084;2024-02-21T11:14:10;100276.88;;;-2.90;80.52
53011;BME280;42803;55.762;38.084;2024-02-21T11:16:40;100273.16;;;-2.92;81.55
53011;BME280;42803;55.762;38.084;2024-02-21T11:19:19;100277.56;;;-2.91;81.75
53011;BME280;42803;55.762;38.084;2024-02-21T11:21:49;100264.47;;;-3.05;81.53
53011;BME280;42803;55.762;38.084;2024-02-21T11:24:29;100253.72;;;-2.97;82.16
53011;BME280;42803;55.762;38.084;2024-02-21T11:27:08;100261.91;;;-3.05;82.16
53011;BME280;42803;55.762;38.084;2024-02-21T11:29:42;100256.88;;;-3.11;81.87
53011;BME280;42803;55.762;38.084;2024-02-21T11:32:14;100250.75;;;-3.00;83.38
53011;BME280;42803;55.762;38.084;2024-02-21T11:34:54;100244.72;;;-3.01;82.76
53011;BME280;42803;55.762;38.084;2024-02-21T11:37:25;100248.22;;;-3.24;82.32
53011;BME280;42803;55.762;38.084;2024-02-21T11:39:55;100242.50;;;-3.34;83.27
53011;BME280;42803;55.762;38.084;2024-02-21T11:42:25;100233.75;;;-3.18;83.33
53011;BME280;42803;55.762;38.084;2024-02-21T11:44:57;100238.09;;;-3.35;82.92
53011;BME280;42803;55.762;38.084;2024-02-21T11:47:28;100253.91;;;-3.38;83.26
53011;BME280;42803;55.762;38.084;2024-02-21T11:49:58;100243.41;;;-3.34;83.48
53011;BME280;42803;55.762;38.084;2024-02-21T11:52:27;100244.44;;;-3.21;83.62
53011;BME280;42803;55.762;38.084;2024-02-21T11:54:57;100245.81;;;-3.41;83.38
53011;BME280;42803;55.762;38.084;2024-02-21T11:57:33;100247.25;;;-3.25;83.98
53011;BME280;42803;55.762;38.084;2024-02-21T12:00:13;100246.25;;;-3.38;84.21
53011;BME280;42803;55.762;38.084;2024-02-21T12:02:43;100237.16;;;-3.36;84.14
53011;BME280;42803;55.762;38.084;2024-02-21T12:05:14;100242.50;;;-3.34;83.73
53011;BME280;42803;55.762;38.084;2024-02-21T12:07:44;100238.31;;;-3.34;84.27
53011;BME280;42803;55.762;38.084;2024-02-21T12:10:14;100246.34;;;-3.49;84.26
53011;BME280;42803;55.762;38.084;2024-02-21T12:12:43;100245.22;;;-3.81;84.66
53011;BME280;42803;55.762;38.084;2024-02-21T12:15:14;100243.00;;;-3.96;85.58
53011;BME280;42803;55.762;38.084;2024-02-21T12:17:43;100242.75;;;-3.92;85.65
53011;BME280;42803;55.762;38.084;2024-02-21T12:20:14;100243.00;;;-3.96;85.99
53011;BME280;42803;55.762;38.084;2024-02-21T12:22:43;100235.69;;;-4.11;86.65
53011;BME280;42803;55.762;38.084;2024-02-21T12:25:16;100241.41;;;-4.01;87.00
53011;BME280;42803;55.762;38.084;2024-02-21T12:27:47;100236.63;;;-4.11;87.36
53011;BME280;42803;55.762;38.084;2024-02-21T12:30:18;100227.16;;;-4.18;87.66
53011;BME280;42803;55.762;38.084;2024-02-21T12:32:48;100221.19;;;-4.29;87.55
53011;BME280;42803;55.762;38.084;2024-02-21T12:35:18;100223.88;;;-4.46;87.99
53011;BME280;42803;55.762;38.084;2024-02-21T12:38:04;100230.28;;;-4.37;89.09
53011;BME280;42803;55.762;38.084;2024-02-21T12:40:34;100233.25;;;-4.28;89.01
53011;BME280;42803;55.762;38.084;2024-02-21T12:43:03;100228.19;;;-4.34;88.99
53011;BME280;42803;55.762;38.084;2024-02-21T12:45:34;100237.25;;;-4.42;89.12
53011;BME280;42803;55.762;38.084;2024-02-21T12:48:04;100233.59;;;-4.49;89.67
53011;BME280;42803;55.762;38.084;2024-02-21T12:50:33;100227.66;;;-4.67;89.95
53011;BME280;42803;55.762;38.084;2024-02-21T12:53:02;100223.97;;;-4.69;89.93